sensor_id;sensor_type;location;lat;lon;timestamp;P1;durP1;ratioP1;P2;durP2;ratioP2
79755;SDS011;69239;50.678;12.280;2023-12-04T00:01:47;15.02;;;7.35;;
79755;SDS011;69239;50.678;12.280;2023-12-04T00:06:38;16.53;;;6.93;;
79755;SDS011;69239;50.678;12.280;2023-12-04T00:09:05;14.52;;;6.85;;
79755;SDS011;69239;50.678;12.280;2023-12-04T00:11:31;15.52;;;7.03;;
79755;SDS011;69239;50.678;12.280;2023-12-04T00:13:57;15.70;;;7.10;;
79755;SDS011;69239;50.678;12.280;2023-12-04T00:16:23;15.10;;;7.10;;
79755;SDS011;69239;50.678;12.280;2023-12-04T00:18:48;15.95;;;7.20;;
79755;SDS011;69239;50.678;12.280;2023-12-04T00:21:14;15.73;;;7.05;;
79755;SDS011;69239;50.678;12.280;2023-12-04T00:23:39;13.60;;;6.32;;
79755;SDS011;69239;50.678;12.280;2023-12-04T00:28:30;10.48;;;5.18;;
79755;SDS011;69239;50.678;12.280;2023-12-04T00:33:21;14.40;;;5.10;;
79755;SDS011;69239;50.678;12.280;2023-12-04T00:38:12;9.10;;;4.83;;
79755;SDS011;69239;50.678;12.280;2023-12-04T00:40:37;13.70;;;5.68;;
79755;SDS011;69239;50.678;12.280;2023-12-04T00:43:02;16.13;;;7.72;;
79755;SDS011;69239;50.678;12.280;2023-12-04T00:45:28;13.77;;;6.10;;
79755;SDS011;69239;50.678;12.280;2023-12-04T00:47:53;14.07;;;6.82;;
79755;SDS011;69239;50.678;12.280;2023-12-04T00:50:18;13.25;;;6.90;;
79755;SDS011;69239;50.678;12.280;2023-12-04T00:55:09;13.13;;;5.77;;
79755;SDS011;69239;50.678;12.280;2023-12-04T00:57:34;12.93;;;6.40;;
79755;SDS011;69239;50.678;12.280;2023-12-04T01:02:26;13.60;;;6.45;;
79755;SDS011;69239;50.678;12.280;2023-12-04T01:04:51;15.48;;;5.88;;
79755;SDS011;69239;50.678;12.280;2023-12-04T01:07:16;11.88;;;5.97;;
79755;SDS011;69239;50.678;12.280;2023-12-04T01:12:07;15.13;;;6.80;;
79755;SDS011;69239;50.678;12.280;2023-12-04T01:14:32;11.02;;;5.78;;
79755;SDS011;69239;50.678;12.280;2023-12-04T01:16:58;15.63;;;7.20;;
79755;SDS011;69239;50.678;12.280;2023-12-04T01:19:23;15.77;;;6.55;;
79755;SDS011;69239;50.678;12.280;2023-12-04T01:24:15;13.70;;;7.40;;
79755;SDS011;69239;50.678;12.280;2023-12-04T01:26:40;15.25;;;7.18;;
79755;SDS011;69239;50.678;12.280;2023-12-04T01:29:06;13.80;;;6.38;;
79755;SDS011;69239;50.678;12.280;2023-12-04T01:31:31;14.27;;;7.07;;
79755;SDS011;69239;50.678;12.280;2023-12-04T01:36:22;13.70;;;6.30;;
79755;SDS011;69239;50.678;12.280;2023-12-04T01:38:48;14.43;;;6.65;;
79755;SDS011;69239;50.678;12.280;2023-12-04T01:41:13;14.90;;;6.20;;
79755;SDS011;69239;50.678;12.280;2023-12-04T01:46:04;16.20;;;6.47;;
79755;SDS011;69239;50.678;12.280;2023-12-04T01:48:30;15.95;;;7.50;;
79755;SDS011;69239;50.678;12.280;2023-12-04T01:50:56;12.25;;;6.45;;
79755;SDS011;69239;50.678;12.280;2023-12-04T01:53:25;16.08;;;7.20;;
79755;SDS011;69239;50.678;12.280;2023-12-04T01:55:51;13.70;;;6.70;;
79755;SDS011;69239;50.678;12.280;2023-12-04T01:58:16;13.20;;;6.47;;
79755;SDS011;69239;50.678;12.280;2023-12-04T02:00:42;16.40;;;6.32;;
79755;SDS011;69239;50.678;12.280;2023-12-04T02:03:08;14.68;;;7.72;;
79755;SDS011;69239;50.678;12.280;2023-12-04T02:05:34;15.07;;;6.45;;
79755;SDS011;69239;50.678;12.280;2023-12-04T02:08:00;11.88;;;5.43;;
79755;SDS011;69239;50.678;12.280;2023-12-04T02:10:26;11.80;;;6.47;;
79755;SDS011;69239;50.678;12.280;2023-12-04T02:12:51;14.70;;;6.00;;
79755;SDS011;69239;50.678;12.280;2023-12-04T02:17:45;14.23;;;6.03;;
79755;SDS011;69239;50.678;12.280;2023-12-04T02:20:14;13.60;;;5.70;;
79755;SDS011;69239;50.678;12.280;2023-12-04T02:22:39;13.95;;;5.97;;
79755;SDS011;69239;50.678;12.280;2023-12-04T02:25:06;16.15;;;7.15;;
79755;SDS011;69239;50.678;12.280;2023-12-04T02:27:45;12.20;;;6.15;;
79755;SDS011;69239;50.678;12.280;2023-12-04T02:30:14;14.75;;;6.93;;
79755;SDS011;69239;50.678;12.280;2023-12-04T02:32:44;13.07;;;5.88;;
79755;SDS011;69239;50.678;12.280;2023-12-04T02:35:11;12.20;;;6.43;;
79755;SDS011;69239;50.678;12.280;2023-12-04T02:37:38;13.15;;;6.57;;
79755;SDS011;69239;50.678;12.280;2023-12-04T02:40:05;12.32;;;6.63;;
79755;SDS011;69239;50.678;12.280;2023-12-04T02:44:57;12.38;;;6.03;;
79755;SDS011;69239;50.678;12.280;2023-12-04T02:47:22;11.40;;;5.70;;
79755;SDS011;69239;50.678;12.280;2023-12-04T02:49:48;10.52;;;4.72;;
79755;SDS011;69239;50.678;12.280;2023-12-04T02:52:13;13.52;;;5.65;;
79755;SDS011;69239;50.678;12.280;2023-12-04T02:54:39;13.02;;;6.68;;
79755;SDS011;69239;50.678;12.280;2023-12-04T02:57:04;11.80;;;5.47;;
79755;SDS011;69239;50.678;12.280;2023-12-04T02:59:29;11.68;;;5.75;;
79755;SDS011;69239;50.678;12.280;2023-12-04T03:01:55;15.00;;;6.30;;
79755;SDS011;69239;50.678;12.280;2023-12-04T03:04:20;14.20;;;6.50;;
79755;SDS011;69239;50.678;12.280;2023-12-04T03:06:46;11.93;;;5.63;;
79755;SDS011;69239;50.678;12.280;2023-12-04T03:09:11;13.00;;;5.70;;
79755;SDS011;69239;50.678;12.280;2023-12-04T03:11:40;13.73;;;5.93;;
79755;SDS011;69239;50.678;12.280;2023-12-04T03:14:06;12.63;;;5.60;;
79755;SDS011;69239;50.678;12.280;2023-12-04T03:18:57;10.57;;;5.23;;
79755;SDS011;69239;50.678;12.280;2023-12-04T03:21:23;12.43;;;5.72;;
79755;SDS011;69239;50.678;12.280;2023-12-04T03:23:48;10.10;;;5.45;;
79755;SDS011;69239;50.678;12.280;2023-12-04T03:26:13;11.80;;;5.30;;
79755;SDS011;69239;50.678;12.280;2023-12-04T03:28:39;12.20;;;5.57;;
79755;SDS011;69239;50.678;12.280;2023-12-04T03:31:08;12.02;;;5.90;;
79755;SDS011;69239;50.678;12.280;2023-12-04T03:33:34;11.10;;;5.30;;
79755;SDS011;69239;50.678;12.280;2023-12-04T03:36:00;11.82;;;5.68;;
79755;SDS011;69239;50.678;12.280;2023-12-04T03:38:26;13.60;;;6.13;;
79755;SDS011;69239;50.678;12.280;2023-12-04T03:40:52;9.60;;;4.50;;
79755;SDS011;69239;50.678;12.280;2023-12-04T03:43:17;12.02;;;5.88;;
79755;SDS011;69239;50.678;12.280;2023-12-04T03:45:42;12.38;;;6.07;;
79755;SDS011;69239;50.678;12.280;2023-12-04T03:48:08;12.18;;;5.43;;
79755;SDS011;69239;50.678;12.280;2023-12-04T03:52:59;11.13;;;5.30;;
79755;SDS011;69239;50.678;12.280;2023-12-04T03:55:24;11.27;;;5.32;;
79755;SDS011;69239;50.678;12.280;2023-12-04T03:57:49;10.88;;;4.68;;
79755;SDS011;69239;50.678;12.280;2023-12-04T04:02:42;10.77;;;5.60;;
79755;SDS011;69239;50.678;12.280;2023-12-04T04:05:08;10.73;;;5.43;;
79755;SDS011;69239;50.678;12.280;2023-12-04T04:07:34;12.13;;;5.70;;
79755;SDS011;69239;50.678;12.280;2023-12-04T04:10:00;10.27;;;4.35;;
79755;SDS011;69239;50.678;12.280;2023-12-04T04:12:26;11.63;;;5.35;;
79755;SDS011;69239;50.678;12.280;2023-12-04T04:14:52;8.52;;;4.47;;
79755;SDS011;69239;50.678;12.280;2023-12-04T04:17:17;11.25;;;5.43;;
79755;SDS011;69239;50.678;12.280;2023-12-04T04:19:43;9.63;;;4.50;;
79755;SDS011;69239;50.678;12.280;2023-12-04T04:22:08;9.63;;;5.07;;
79755;SDS011;69239;50.678;12.280;2023-12-04T04:24:34;11.00;;;5.75;;
79755;SDS011;69239;50.678;12.280;2023-12-04T04:26:59;10.73;;;5.10;;
79755;SDS011;69239;50.678;12.280;2023-12-04T04:31:50;8.23;;;4.20;;
79755;SDS011;69239;50.678;12.280;2023-12-04T04:34:15;6.05;;;3.50;;
79755;SDS011;69239;50.678;12.280;2023-12-04T04:39:07;10.30;;;4.95;;
79755;SDS011;69239;50.678;12.280;2023-12-04T04:41:32;10.30;;;4.65;;
79755;SDS011;69239;50.678;12.280;2023-12-04T04:46:23;9.23;;;4.83;;
79755;SDS011;69239;50.678;12.280;2023-12-04T04:48:50;7.82;;;4.82;;
79755;SDS011;69239;50.678;12.280;2023-12-04T04:51:15;10.75;;;5.07;;
79755;SDS011;69239;50.678;12.280;2023-12-04T04:56:07;12.27;;;5.83;;
79755;SDS011;69239;50.678;12.280;2023-12-04T04:58:33;9.90;;;4.55;;
79755;SDS011;69239;50.678;12.280;2023-12-04T05:00:58;10.52;;;6.07;;
79755;SDS011;69239;50.678;12.280;2023-12-04T05:05:49;10.40;;;5.37;;
79755;SDS011;69239;50.678;12.280;2023-12-04T05:10:40;10.27;;;5.13;;
79755;SDS011;69239;50.678;12.280;2023-12-04T05:15:30;9.97;;;5.10;;
79755;SDS011;69239;50.678;12.280;2023-12-04T05:17:56;11.38;;;4.88;;
79755;SDS011;69239;50.678;12.280;2023-12-04T05:20:21;12.25;;;5.57;;
79755;SDS011;69239;50.678;12.280;2023-12-04T05:22:47;8.80;;;4.55;;
79755;SDS011;69239;50.678;12.280;2023-12-04T05:25:13;13.05;;;6.28;;
79755;SDS011;69239;50.678;12.280;2023-12-04T05:27:39;12.95;;;5.70;;
79755;SDS011;69239;50.678;12.280;2023-12-04T05:30:05;10.90;;;5.88;;
79755;SDS011;69239;50.678;12.280;2023-12-04T05:32:30;12.90;;;6.40;;
79755;SDS011;69239;50.678;12.280;2023-12-04T05:34:56;12.85;;;5.75;;
79755;SDS011;69239;50.678;12.280;2023-12-04T05:39:46;12.50;;;5.30;;
79755;SDS011;69239;50.678;12.280;2023-12-04T05:44:37;10.70;;;4.93;;
79755;SDS011;69239;50.678;12.280;2023-12-04T05:47:02;12.45;;;5.35;;
79755;SDS011;69239;50.678;12.280;2023-12-04T05:51:54;11.55;;;5.70;;
79755;SDS011;69239;50.678;12.280;2023-12-04T05:54:19;12.88;;;5.65;;
79755;SDS011;69239;50.678;12.280;2023-12-04T05:59:10;13.87;;;5.03;;
79755;SDS011;69239;50.678;12.280;2023-12-04T06:04:01;12.20;;;5.50;;
79755;SDS011;69239;50.678;12.280;2023-12-04T06:06:26;10.23;;;5.40;;
79755;SDS011;69239;50.678;12.280;2023-12-04T06:08:52;9.70;;;4.97;;
79755;SDS011;69239;50.678;12.280;2023-12-04T06:13:44;11.02;;;5.68;;
79755;SDS011;69239;50.678;12.280;2023-12-04T06:16:09;10.50;;;5.25;;
79755;SDS011;69239;50.678;12.280;2023-12-04T06:21:00;12.07;;;5.20;;
79755;SDS011;69239;50.678;12.280;2023-12-04T06:25:51;8.13;;;3.92;;
79755;SDS011;69239;50.678;12.280;2023-12-04T06:30:42;10.32;;;4.88;;
79755;SDS011;69239;50.678;12.280;2023-12-04T06:35:33;10.65;;;4.65;;
79755;SDS011;69239;50.678;12.280;2023-12-04T06:40:31;9.10;;;4.18;;
79755;SDS011;69239;50.678;12.280;2023-12-04T06:42:57;11.10;;;4.53;;
79755;SDS011;69239;50.678;12.280;2023-12-04T06:47:49;7.60;;;3.92;;
79755;SDS011;69239;50.678;12.280;2023-12-04T06:50:16;6.75;;;3.85;;
79755;SDS011;69239;50.678;12.280;2023-12-04T06:52:41;11.32;;;4.40;;
79755;SDS011;69239;50.678;12.280;2023-12-04T06:55:07;7.45;;;3.97;;
79755;SDS011;69239;50.678;12.280;2023-12-04T06:57:33;9.32;;;4.63;;
79755;SDS011;69239;50.678;12.280;2023-12-04T06:59:59;7.82;;;4.03;;
79755;SDS011;69239;50.678;12.280;2023-12-04T07:04:50;7.20;;;3.67;;
79755;SDS011;69239;50.678;12.280;2023-12-04T07:09:41;9.95;;;4.45;;
79755;SDS011;69239;50.678;12.280;2023-12-04T07:14:32;8.93;;;4.60;;
79755;SDS011;69239;50.678;12.280;2023-12-04T07:16:57;5.40;;;2.97;;
79755;SDS011;69239;50.678;12.280;2023-12-04T07:21:49;5.75;;;3.20;;
79755;SDS011;69239;50.678;12.280;2023-12-04T07:26:43;7.28;;;3.60;;
79755;SDS011;69239;50.678;12.280;2023-12-04T07:29:10;7.70;;;3.85;;
79755;SDS011;69239;50.678;12.280;2023-12-04T07:31:37;6.90;;;3.85;;
79755;SDS011;69239;50.678;12.280;2023-12-04T07:34:06;9.50;;;4.38;;
79755;SDS011;69239;50.678;12.280;2023-12-04T07:38:57;8.85;;;4.38;;
79755;SDS011;69239;50.678;12.280;2023-12-04T07:43:47;8.27;;;4.17;;
79755;SDS011;69239;50.678;12.280;2023-12-04T07:48:41;8.05;;;4.63;;
79755;SDS011;69239;50.678;12.280;2023-12-04T07:51:09;8.43;;;3.88;;
79755;SDS011;69239;50.678;12.280;2023-12-04T07:53:35;7.75;;;3.53;;
79755;SDS011;69239;50.678;12.280;2023-12-04T07:58:27;11.25;;;4.60;;
79755;SDS011;69239;50.678;12.280;2023-12-04T08:03:18;8.50;;;3.83;;
79755;SDS011;69239;50.678;12.280;2023-12-04T08:08:09;7.15;;;3.10;;
79755;SDS011;69239;50.678;12.280;2023-12-04T08:13:00;5.93;;;3.43;;
79755;SDS011;69239;50.678;12.280;2023-12-04T08:17:50;7.13;;;4.00;;
79755;SDS011;69239;50.678;12.280;2023-12-04T08:22:41;7.22;;;3.85;;
79755;SDS011;69239;50.678;12.280;2023-12-04T08:25:10;11.43;;;4.07;;
79755;SDS011;69239;50.678;12.280;2023-12-04T08:27:35;6.65;;;3.67;;
79755;SDS011;69239;50.678;12.280;2023-12-04T08:30:00;7.97;;;3.80;;
79755;SDS011;69239;50.678;12.280;2023-12-04T08:32:26;5.75;;;3.30;;
79755;SDS011;69239;50.678;12.280;2023-12-04T08:34:52;5.10;;;3.10;;
79755;SDS011;69239;50.678;12.280;2023-12-04T08:37:18;7.40;;;3.95;;
79755;SDS011;69239;50.678;12.280;2023-12-04T08:39:45;7.40;;;3.42;;
79755;SDS011;69239;50.678;12.280;2023-12-04T08:42:11;7.20;;;3.78;;
79755;SDS011;69239;50.678;12.280;2023-12-04T08:44:37;6.85;;;3.70;;
79755;SDS011;69239;50.678;12.280;2023-12-04T08:47:03;6.65;;;3.35;;
79755;SDS011;69239;50.678;12.280;2023-12-04T08:49:28;7.72;;;3.70;;
79755;SDS011;69239;50.678;12.280;2023-12-04T08:51:54;6.15;;;2.95;;
79755;SDS011;69239;50.678;12.280;2023-12-04T08:54:19;6.93;;;3.55;;
79755;SDS011;69239;50.678;12.280;2023-12-04T08:56:46;7.20;;;4.05;;
79755;SDS011;69239;50.678;12.280;2023-12-04T08:59:12;8.43;;;4.47;;
79755;SDS011;69239;50.678;12.280;2023-12-04T09:01:38;8.57;;;4.05;;
79755;SDS011;69239;50.678;12.280;2023-12-04T09:04:04;5.55;;;3.28;;
79755;SDS011;69239;50.678;12.280;2023-12-04T09:06:29;5.38;;;3.47;;
79755;SDS011;69239;50.678;12.280;2023-12-04T09:08:55;6.13;;;3.17;;
79755;SDS011;69239;50.678;12.280;2023-12-04T09:11:20;4.90;;;2.92;;
79755;SDS011;69239;50.678;12.280;2023-12-04T09:13:46;6.13;;;3.45;;
79755;SDS011;69239;50.678;12.280;2023-12-04T09:16:11;8.70;;;3.78;;
79755;SDS011;69239;50.678;12.280;2023-12-04T09:18:37;6.25;;;3.05;;
79755;SDS011;69239;50.678;12.280;2023-12-04T09:21:02;6.05;;;3.28;;
79755;SDS011;69239;50.678;12.280;2023-12-04T09:23:29;6.20;;;3.38;;
79755;SDS011;69239;50.678;12.280;2023-12-04T09:25:55;5.85;;;3.40;;
79755;SDS011;69239;50.678;12.280;2023-12-04T09:28:21;5.85;;;3.22;;
79755;SDS011;69239;50.678;12.280;2023-12-04T09:30:46;6.03;;;3.40;;
79755;SDS011;69239;50.678;12.280;2023-12-04T09:33:12;8.13;;;3.40;;
79755;SDS011;69239;50.678;12.280;2023-12-04T09:35:37;5.32;;;3.10;;
79755;SDS011;69239;50.678;12.280;2023-12-04T09:38:03;7.28;;;3.78;;
79755;SDS011;69239;50.678;12.280;2023-12-04T09:40:28;7.15;;;3.53;;
79755;SDS011;69239;50.678;12.280;2023-12-04T09:42:54;5.22;;;3.40;;
79755;SDS011;69239;50.678;12.280;2023-12-04T09:45:20;5.95;;;3.72;;
79755;SDS011;69239;50.678;12.280;2023-12-04T09:47:48;4.93;;;3.15;;
79755;SDS011;69239;50.678;12.280;2023-12-04T09:50:14;4.88;;;2.63;;
79755;SDS011;69239;50.678;12.280;2023-12-04T09:52:41;5.82;;;3.92;;
79755;SDS011;69239;50.678;12.280;2023-12-04T09:55:07;5.65;;;3.17;;
79755;SDS011;69239;50.678;12.280;2023-12-04T09:57:32;3.90;;;2.25;;
79755;SDS011;69239;50.678;12.280;2023-12-04T09:59:59;5.60;;;3.10;;
79755;SDS011;69239;50.678;12.280;2023-12-04T10:02:25;5.07;;;3.20;;
79755;SDS011;69239;50.678;12.280;2023-12-04T10:04:51;5.50;;;3.15;;
79755;SDS011;69239;50.678;12.280;2023-12-04T10:07:17;7.90;;;3.95;;
79755;SDS011;69239;50.678;12.280;2023-12-04T10:09:42;6.38;;;4.30;;
79755;SDS011;69239;50.678;12.280;2023-12-04T10:12:08;7.97;;;3.53;;
79755;SDS011;69239;50.678;12.280;2023-12-04T10:14:35;7.38;;;3.50;;
79755;SDS011;69239;50.678;12.280;2023-12-04T10:17:00;4.75;;;2.60;;
79755;SDS011;69239;50.678;12.280;2023-12-04T10:19:39;6.68;;;3.33;;
79755;SDS011;69239;50.678;12.280;2023-12-04T10:22:04;7.63;;;4.30;;
79755;SDS011;69239;50.678;12.280;2023-12-04T10:24:36;6.43;;;3.38;;
79755;SDS011;69239;50.678;12.280;2023-12-04T10:27:03;7.10;;;3.25;;
79755;SDS011;69239;50.678;12.280;2023-12-04T10:29:40;10.25;;;4.50;;
79755;SDS011;69239;50.678;12.280;2023-12-04T10:32:09;6.13;;;3.45;;
79755;SDS011;69239;50.678;12.280;2023-12-04T10:34:35;4.63;;;3.00;;
79755;SDS011;69239;50.678;12.280;2023-12-04T10:37:02;5.93;;;3.33;;
79755;SDS011;69239;50.678;12.280;2023-12-04T10:39:29;5.00;;;2.83;;
79755;SDS011;69239;50.678;12.280;2023-12-04T10:42:03;4.95;;;2.95;;
79755;SDS011;69239;50.678;12.280;2023-12-04T10:44:32;4.05;;;2.55;;
79755;SDS011;69239;50.678;12.280;2023-12-04T10:46:57;4.97;;;2.97;;
79755;SDS011;69239;50.678;12.280;2023-12-04T10:49:26;4.55;;;2.83;;
79755;SDS011;69239;50.678;12.280;2023-12-04T10:51:53;4.25;;;3.08;;
79755;SDS011;69239;50.678;12.280;2023-12-04T10:54:21;4.43;;;2.47;;
79755;SDS011;69239;50.678;12.280;2023-12-04T10:56:47;4.45;;;2.75;;
79755;SDS011;69239;50.678;12.280;2023-12-04T10:59:15;4.78;;;2.55;;
79755;SDS011;69239;50.678;12.280;2023-12-04T11:01:46;6.72;;;2.97;;
79755;SDS011;69239;50.678;12.280;2023-12-04T11:04:16;4.63;;;2.45;;
79755;SDS011;69239;50.678;12.280;2023-12-04T11:06:43;4.40;;;2.63;;
79755;SDS011;69239;50.678;12.280;2023-12-04T11:09:13;4.15;;;2.55;;
79755;SDS011;69239;50.678;12.280;2023-12-04T11:11:40;3.85;;;2.38;;
79755;SDS011;69239;50.678;12.280;2023-12-04T11:14:11;3.58;;;2.38;;
79755;SDS011;69239;50.678;12.280;2023-12-04T11:16:47;3.03;;;1.73;;
79755;SDS011;69239;50.678;12.280;2023-12-04T11:19:15;4.80;;;1.50;;
79755;SDS011;69239;50.678;12.280;2023-12-04T11:21:49;3.05;;;1.50;;
79755;SDS011;69239;50.678;12.280;2023-12-04T11:24:16;2.47;;;1.70;;
79755;SDS011;69239;50.678;12.280;2023-12-04T11:26:43;2.20;;;1.40;;
79755;SDS011;69239;50.678;12.280;2023-12-04T11:29:09;2.30;;;1.80;;
79755;SDS011;69239;50.678;12.280;2023-12-04T11:31:37;2.63;;;1.38;;
79755;SDS011;69239;50.678;12.280;2023-12-04T11:34:03;2.47;;;1.10;;
79755;SDS011;69239;50.678;12.280;2023-12-04T11:36:29;2.95;;;1.40;;
79755;SDS011;69239;50.678;12.280;2023-12-04T11:38:55;4.07;;;2.00;;
79755;SDS011;69239;50.678;12.280;2023-12-04T11:41:24;3.30;;;1.67;;
79755;SDS011;69239;50.678;12.280;2023-12-04T11:43:50;3.03;;;2.00;;
79755;SDS011;69239;50.678;12.280;2023-12-04T11:46:23;3.17;;;1.80;;
79755;SDS011;69239;50.678;12.280;2023-12-04T11:48:51;4.20;;;1.83;;
79755;SDS011;69239;50.678;12.280;2023-12-04T11:54:03;3.47;;;1.80;;
79755;SDS011;69239;50.678;12.280;2023-12-04T11:56:30;3.75;;;2.50;;
79755;SDS011;69239;50.678;12.280;2023-12-04T11:58:55;4.22;;;2.00;;
79755;SDS011;69239;50.678;12.280;2023-12-04T12:01:28;3.28;;;2.03;;
79755;SDS011;69239;50.678;12.280;2023-12-04T12:03:58;4.78;;;2.20;;
79755;SDS011;69239;50.678;12.280;2023-12-04T12:06:24;4.05;;;2.58;;
79755;SDS011;69239;50.678;12.280;2023-12-04T12:08:49;3.55;;;2.00;;
79755;SDS011;69239;50.678;12.280;2023-12-04T12:11:16;3.60;;;2.03;;
79755;SDS011;69239;50.678;12.280;2023-12-04T12:13:42;3.28;;;1.95;;
79755;SDS011;69239;50.678;12.280;2023-12-04T12:16:07;4.25;;;2.65;;
79755;SDS011;69239;50.678;12.280;2023-12-04T12:18:36;3.15;;;1.85;;
79755;SDS011;69239;50.678;12.280;2023-12-04T12:21:02;4.00;;;2.35;;
79755;SDS011;69239;50.678;12.280;2023-12-04T12:23:28;3.15;;;2.47;;
79755;SDS011;69239;50.678;12.280;2023-12-04T12:25:54;2.20;;;1.60;;
79755;SDS011;69239;50.678;12.280;2023-12-04T12:28:19;4.43;;;2.17;;
79755;SDS011;69239;50.678;12.280;2023-12-04T12:30:45;5.33;;;2.17;;
79755;SDS011;69239;50.678;12.280;2023-12-04T12:33:14;3.10;;;2.00;;
79755;SDS011;69239;50.678;12.280;2023-12-04T12:35:40;4.53;;;2.22;;
79755;SDS011;69239;50.678;12.280;2023-12-04T12:38:06;4.72;;;2.10;;
79755;SDS011;69239;50.678;12.280;2023-12-04T12:40:32;3.53;;;2.17;;
79755;SDS011;69239;50.678;12.280;2023-12-04T12:43:07;3.25;;;1.85;;
79755;SDS011;69239;50.678;12.280;2023-12-04T12:45:43;3.55;;;2.30;;
79755;SDS011;69239;50.678;12.280;2023-12-04T12:48:12;4.45;;;2.10;;
79755;SDS011;69239;50.678;12.280;2023-12-04T12:50:38;6.53;;;3.88;;
79755;SDS011;69239;50.678;12.280;2023-12-04T12:53:04;16.83;;;8.00;;
79755;SDS011;69239;50.678;12.280;2023-12-04T12:55:29;12.45;;;5.80;;
79755;SDS011;69239;50.678;12.280;2023-12-04T12:57:55;8.07;;;3.28;;
79755;SDS011;69239;50.678;12.280;2023-12-04T13:00:22;7.90;;;3.20;;
79755;SDS011;69239;50.678;12.280;2023-12-04T13:02:48;6.53;;;2.80;;
79755;SDS011;69239;50.678;12.280;2023-12-04T13:05:13;7.90;;;3.20;;
79755;SDS011;69239;50.678;12.280;2023-12-04T13:07:39;10.25;;;4.47;;
79755;SDS011;69239;50.678;12.280;2023-12-04T13:10:06;9.60;;;4.72;;
79755;SDS011;69239;50.678;12.280;2023-12-04T13:12:33;10.60;;;4.85;;
79755;SDS011;69239;50.678;12.280;2023-12-04T13:14:59;10.30;;;4.85;;
79755;SDS011;69239;50.678;12.280;2023-12-04T13:17:24;11.95;;;5.40;;
79755;SDS011;69239;50.678;12.280;2023-12-04T13:19:50;14.77;;;7.40;;
79755;SDS011;69239;50.678;12.280;2023-12-04T13:22:15;12.82;;;6.97;;
79755;SDS011;69239;50.678;12.280;2023-12-04T13:24:41;25.20;;;18.00;;
79755;SDS011;69239;50.678;12.280;2023-12-04T13:27:06;9.82;;;7.25;;
79755;SDS011;69239;50.678;12.280;2023-12-04T13:29:33;8.05;;;5.32;;
79755;SDS011;69239;50.678;12.280;2023-12-04T13:31:58;6.95;;;3.58;;
79755;SDS011;69239;50.678;12.280;2023-12-04T13:34:24;7.25;;;4.45;;
79755;SDS011;69239;50.678;12.280;2023-12-04T13:36:50;7.13;;;3.63;;
79755;SDS011;69239;50.678;12.280;2023-12-04T13:39:15;7.40;;;4.25;;
79755;SDS011;69239;50.678;12.280;2023-12-04T13:42:04;8.40;;;4.95;;
79755;SDS011;69239;50.678;12.280;2023-12-04T13:45:01;6.28;;;3.53;;
79755;SDS011;69239;50.678;12.280;2023-12-04T13:47:29;5.57;;;3.30;;
79755;SDS011;69239;50.678;12.280;2023-12-04T13:49:54;6.03;;;3.30;;
79755;SDS011;69239;50.678;12.280;2023-12-04T13:52:20;10.75;;;5.60;;
79755;SDS011;69239;50.678;12.280;2023-12-04T13:54:48;16.60;;;5.65;;
79755;SDS011;69239;50.678;12.280;2023-12-04T13:57:15;9.77;;;5.13;;
79755;SDS011;69239;50.678;12.280;2023-12-04T13:59:47;7.32;;;3.72;;
79755;SDS011;69239;50.678;12.280;2023-12-04T14:02:13;5.20;;;3.67;;
79755;SDS011;69239;50.678;12.280;2023-12-04T14:04:39;6.57;;;3.45;;
79755;SDS011;69239;50.678;12.280;2023-12-04T14:07:04;6.40;;;3.38;;
79755;SDS011;69239;50.678;12.280;2023-12-04T14:09:33;4.85;;;2.97;;
79755;SDS011;69239;50.678;12.280;2023-12-04T14:12:00;5.78;;;3.63;;
79755;SDS011;69239;50.678;12.280;2023-12-04T14:14:25;4.50;;;2.58;;
79755;SDS011;69239;50.678;12.280;2023-12-04T14:16:50;5.70;;;3.00;;
79755;SDS011;69239;50.678;12.280;2023-12-04T14:19:17;6.07;;;3.20;;
79755;SDS011;69239;50.678;12.280;2023-12-04T14:21:46;3.78;;;2.55;;
79755;SDS011;69239;50.678;12.280;2023-12-04T14:24:13;5.20;;;2.60;;
79755;SDS011;69239;50.678;12.280;2023-12-04T14:26:38;4.97;;;2.85;;
79755;SDS011;69239;50.678;12.280;2023-12-04T14:29:04;4.97;;;2.40;;
79755;SDS011;69239;50.678;12.280;2023-12-04T14:31:31;4.20;;;2.50;;
79755;SDS011;69239;50.678;12.280;2023-12-04T14:33:56;6.00;;;3.30;;
79755;SDS011;69239;50.678;12.280;2023-12-04T14:36:22;5.20;;;2.92;;
79755;SDS011;69239;50.678;12.280;2023-12-04T14:38:47;4.40;;;2.45;;
79755;SDS011;69239;50.678;12.280;2023-12-04T14:41:13;4.47;;;2.53;;
79755;SDS011;69239;50.678;12.280;2023-12-04T14:43:38;7.80;;;4.63;;
79755;SDS011;69239;50.678;12.280;2023-12-04T14:46:04;4.72;;;3.05;;
79755;SDS011;69239;50.678;12.280;2023-12-04T14:48:30;5.82;;;3.30;;
79755;SDS011;69239;50.678;12.280;2023-12-04T14:50:55;13.27;;;4.78;;
79755;SDS011;69239;50.678;12.280;2023-12-04T14:53:20;23.40;;;8.48;;
79755;SDS011;69239;50.678;12.280;2023-12-04T14:56:06;52.30;;;16.15;;
79755;SDS011;69239;50.678;12.280;2023-12-04T14:58:50;49.28;;;16.05;;
79755;SDS011;69239;50.678;12.280;2023-12-04T15:01:31;16.40;;;6.93;;
79755;SDS011;69239;50.678;12.280;2023-12-04T15:04:16;9.48;;;4.68;;
79755;SDS011;69239;50.678;12.280;2023-12-04T15:07:00;7.75;;;3.67;;
79755;SDS011;69239;50.678;12.280;2023-12-04T15:09:43;4.78;;;3.00;;
79755;SDS011;69239;50.678;12.280;2023-12-04T15:12:27;9.75;;;4.22;;
79755;SDS011;69239;50.678;12.280;2023-12-04T15:15:15;13.00;;;7.25;;
79755;SDS011;69239;50.678;12.280;2023-12-04T15:17:59;10.20;;;5.82;;
79755;SDS011;69239;50.678;12.280;2023-12-04T15:20:43;7.63;;;4.07;;
79755;SDS011;69239;50.678;12.280;2023-12-04T15:23:09;7.28;;;3.80;;
79755;SDS011;69239;50.678;12.280;2023-12-04T15:25:35;6.97;;;3.58;;
79755;SDS011;69239;50.678;12.280;2023-12-04T15:28:01;7.35;;;4.30;;
79755;SDS011;69239;50.678;12.280;2023-12-04T15:30:31;22.60;;;10.90;;
79755;SDS011;69239;50.678;12.280;2023-12-04T15:32:57;10.25;;;5.32;;
79755;SDS011;69239;50.678;12.280;2023-12-04T15:35:23;6.72;;;3.72;;
79755;SDS011;69239;50.678;12.280;2023-12-04T15:37:48;5.57;;;2.83;;
79755;SDS011;69239;50.678;12.280;2023-12-04T15:40:14;4.68;;;2.85;;
79755;SDS011;69239;50.678;12.280;2023-12-04T15:42:39;6.30;;;2.78;;
79755;SDS011;69239;50.678;12.280;2023-12-04T15:45:05;6.43;;;3.13;;
79755;SDS011;69239;50.678;12.280;2023-12-04T15:47:31;5.70;;;3.20;;
79755;SDS011;69239;50.678;12.280;2023-12-04T15:49:56;4.88;;;2.78;;
79755;SDS011;69239;50.678;12.280;2023-12-04T15:52:23;5.07;;;3.28;;
79755;SDS011;69239;50.678;12.280;2023-12-04T15:54:51;5.78;;;3.40;;
79755;SDS011;69239;50.678;12.280;2023-12-04T15:57:16;5.22;;;2.65;;
79755;SDS011;69239;50.678;12.280;2023-12-04T15:59:42;6.20;;;3.38;;
79755;SDS011;69239;50.678;12.280;2023-12-04T16:02:09;6.45;;;3.95;;
79755;SDS011;69239;50.678;12.280;2023-12-04T16:04:35;6.00;;;3.13;;
79755;SDS011;69239;50.678;12.280;2023-12-04T16:07:00;6.15;;;3.30;;
79755;SDS011;69239;50.678;12.280;2023-12-04T16:09:26;5.38;;;2.90;;
79755;SDS011;69239;50.678;12.280;2023-12-04T16:11:51;5.53;;;2.83;;
79755;SDS011;69239;50.678;12.280;2023-12-04T16:14:17;5.13;;;2.78;;
79755;SDS011;69239;50.678;12.280;2023-12-04T16:16:43;6.25;;;3.60;;
79755;SDS011;69239;50.678;12.280;2023-12-04T16:19:08;6.72;;;3.20;;
79755;SDS011;69239;50.678;12.280;2023-12-04T16:21:35;4.60;;;2.80;;
79755;SDS011;69239;50.678;12.280;2023-12-04T16:24:01;5.95;;;3.10;;
79755;SDS011;69239;50.678;12.280;2023-12-04T16:26:28;11.45;;;5.20;;